sensor_id;sensor_type;location;lat;lon;timestamp;pressure;altitude;pressure_sealevel;temperature;humidity
75996;BME280;64681;49.738;9.004;2023-11-19T00:00:46;99321.34;;;8.42;100.00
75996;BME280;64681;49.738;9.004;2023-11-19T00:03:12;99328.84;;;8.66;100.00
75996;BME280;64681;49.738;9.004;2023-11-19T00:05:38;99331.34;;;8.45;100.00
75996;BME280;64681;49.738;9.004;2023-11-19T00:08:04;99326.66;;;8.59;100.00
75996;BME280;64681;49.738;9.004;2023-11-19T00:10:31;99334.75;;;8.80;99.96
75996;BME280;64681;49.738;9.004;2023-11-19T00:12:56;99318.38;;;8.52;100.00
75996;BME280;64681;49.738;9.004;2023-11-19T00:15:22;99300.84;;;8.42;100.00
75996;BME280;64681;49.738;9.004;2023-11-19T00:17:49;99299.44;;;8.53;100.00
75996;BME280;64681;49.738;9.004;2023-11-19T00:20:19;99310.69;;;8.59;100.00
75996;BME280;64681;49.738;9.004;2023-11-19T00:22:45;99317.38;;;8.74;100.00
75996;BME280;64681;49.738;9.004;2023-11-19T00:25:18;99308.31;;;8.66;100.00
75996;BME280;64681;49.738;9.004;2023-11-19T00:27:44;99308.50;;;8.44;100.00
75996;BME280;64681;49.738;9.004;2023-11-19T00:30:10;99307.41;;;8.45;100.00
75996;BME280;64681;49.738;9.004;2023-11-19T00:32:36;99311.63;;;8.63;100.00
75996;BME280;64681;49.738;9.004;2023-11-19T00:35:04;99312.28;;;8.51;100.00
75996;BME280;64681;49.738;9.004;2023-11-19T00:37:29;99312.53;;;8.76;100.00
75996;BME280;64681;49.738;9.004;2023-11-19T00:39:55;99304.69;;;8.71;100.00
75996;BME280;64681;49.738;9.004;2023-11-19T00:42:22;99297.28;;;8.85;99.88
75996;BME280;64681;49.738;9.004;2023-11-19T00:44:49;99289.34;;;8.77;100.00
75996;BME280;64681;49.738;9.004;2023-11-19T00:47:15;99297.38;;;8.68;100.00
75996;BME280;64681;49.738;9.004;2023-11-19T00:49:40;99291.75;;;8.52;100.00
75996;BME280;64681;49.738;9.004;2023-11-19T00:52:06;99304.25;;;8.60;100.00
75996;BME280;64681;49.738;9.004;2023-11-19T00:54:32;99315.06;;;8.73;100.00
75996;BME280;64681;49.738;9.004;2023-11-19T00:56:57;99306.78;;;8.57;100.00
75996;BME280;64681;49.738;9.004;2023-11-19T00:59:23;99299.28;;;8.59;100.00
75996;BME280;64681;49.738;9.004;2023-11-19T01:01:49;99307.06;;;8.64;100.00
75996;BME280;64681;49.738;9.004;2023-11-19T01:04:15;99287.00;;;8.75;100.00
75996;BME280;64681;49.738;9.004;2023-11-19T01:06:40;99297.75;;;8.96;100.00
75996;BME280;64681;49.738;9.004;2023-11-19T01:09:08;99295.09;;;8.87;99.82
75996;BME280;64681;49.738;9.004;2023-11-19T01:11:34;99296.66;;;8.89;100.00
75996;BME280;64681;49.738;9.004;2023-11-19T01:14:00;99291.56;;;8.66;100.00
75996;BME280;64681;49.738;9.004;2023-11-19T01:16:26;99291.06;;;8.81;100.00
75996;BME280;64681;49.738;9.004;2023-11-19T01:18:52;99297.88;;;9.00;100.00
75996;BME280;64681;49.738;9.004;2023-11-19T01:21:18;99307.56;;;9.05;99.28
75996;BME280;64681;49.738;9.004;2023-11-19T01:23:44;99301.81;;;8.94;99.69
75996;BME280;64681;49.738;9.004;2023-11-19T01:26:10;99300.00;;;8.77;100.00
75996;BME280;64681;49.738;9.004;2023-11-19T01:28:36;99300.78;;;8.77;100.00
75996;BME280;64681;49.738;9.004;2023-11-19T01:31:02;99303.97;;;9.00;99.78
75996;BME280;64681;49.738;9.004;2023-11-19T01:33:29;99298.38;;;8.93;100.00
75996;BME280;64681;49.738;9.004;2023-11-19T01:35:55;99300.22;;;8.93;100.00
75996;BME280;64681;49.738;9.004;2023-11-19T01:38:24;99304.78;;;8.92;100.00
75996;BME280;64681;49.738;9.004;2023-11-19T01:40:50;99312.59;;;8.97;100.00
75996;BME280;64681;49.738;9.004;2023-11-19T01:43:51;99309.97;;;8.89;100.00
75996;BME280;64681;49.738;9.004;2023-11-19T01:46:16;99312.72;;;8.62;100.00
75996;BME280;64681;49.738;9.004;2023-11-19T01:48:46;99296.84;;;8.75;100.00
75996;BME280;64681;49.738;9.004;2023-11-19T01:51:16;99273.78;;;8.96;100.00
75996;BME280;64681;49.738;9.004;2023-11-19T01:53:43;99275.97;;;8.94;100.00
75996;BME280;64681;49.738;9.004;2023-11-19T01:56:13;99257.19;;;8.91;100.00
75996;BME280;64681;49.738;9.004;2023-11-19T01:58:41;99231.72;;;8.72;100.00
75996;BME280;64681;49.738;9.004;2023-11-19T02:01:10;99215.34;;;8.91;100.00
75996;BME280;64681;49.738;9.004;2023-11-19T02:03:37;99241.09;;;8.78;100.00
75996;BME280;64681;49.738;9.004;2023-11-19T02:06:03;99231.56;;;8.77;100.00
75996;BME280;64681;49.738;9.004;2023-11-19T02:08:29;99246.69;;;8.94;100.00
75996;BME280;64681;49.738;9.004;2023-11-19T02:10:55;99240.53;;;9.02;100.00
75996;BME280;64681;49.738;9.004;2023-11-19T02:13:24;99227.94;;;9.12;100.00
75996;BME280;64681;49.738;9.004;2023-11-19T02:15:50;99221.41;;;9.00;100.00
75996;BME280;64681;49.738;9.004;2023-11-19T02:18:21;99216.31;;;8.86;100.00
75996;BME280;64681;49.738;9.004;2023-11-19T02:20:50;99216.59;;;8.94;100.00
75996;BME280;64681;49.738;9.004;2023-11-19T02:23:18;99206.25;;;8.92;100.00
75996;BME280;64681;49.738;9.004;2023-11-19T02:26:12;99197.25;;;8.76;100.00
75996;BME280;64681;49.738;9.004;2023-11-19T02:28:39;99196.69;;;9.00;100.00
75996;BME280;64681;49.738;9.004;2023-11-19T02:31:05;99194.09;;;9.12;100.00
75996;BME280;64681;49.738;9.004;2023-11-19T02:33:36;99190.22;;;8.80;100.00
75996;BME280;64681;49.738;9.004;2023-11-19T02:36:03;99193.81;;;9.05;100.00
75996;BME280;64681;49.738;9.004;2023-11-19T02:38:29;99188.41;;;8.93;100.00
75996;BME280;64681;49.738;9.004;2023-11-19T02:40:56;99184.72;;;9.27;100.00
75996;BME280;64681;49.738;9.004;2023-11-19T02:43:22;99181.94;;;9.24;100.00
75996;BME280;64681;49.738;9.004;2023-11-19T02:45:48;99191.78;;;9.02;100.00
75996;BME280;64681;49.738;9.004;2023-11-19T02:48:14;99193.00;;;9.34;100.00
75996;BME280;64681;49.738;9.004;2023-11-19T02:50:41;99198.59;;;9.42;100.00
75996;BME280;64681;49.738;9.004;2023-11-19T02:53:07;99192.47;;;9.41;100.00
75996;BME280;64681;49.738;9.004;2023-11-19T02:55:32;99189.16;;;9.44;100.00
75996;BME280;64681;49.738;9.004;2023-11-19T02:58:03;99191.63;;;9.28;100.00
75996;BME280;64681;49.738;9.004;2023-11-19T03:00:35;99192.59;;;9.24;100.00
75996;BME280;64681;49.738;9.004;2023-11-19T03:03:03;99181.81;;;9.41;100.00
75996;BME280;64681;49.738;9.004;2023-11-19T03:05:49;99161.09;;;9.59;100.00
75996;BME280;64681;49.738;9.004;2023-11-19T03:08:17;99152.31;;;9.25;100.00
75996;BME280;64681;49.738;9.004;2023-11-19T03:10:43;99145.16;;;9.38;100.00
75996;BME280;64681;49.738;9.004;2023-11-19T03:13:14;99146.69;;;9.39;100.00
75996;BME280;64681;49.738;9.004;2023-11-19T03:15:40;99150.19;;;9.52;100.00
75996;BME280;64681;49.738;9.004;2023-11-19T03:18:06;99148.13;;;9.58;100.00
75996;BME280;64681;49.738;9.004;2023-11-19T03:20:31;99151.03;;;9.65;100.00
75996;BME280;64681;49.738;9.004;2023-11-19T03:22:57;99157.56;;;9.55;100.00
75996;BME280;64681;49.738;9.004;2023-11-19T03:25:27;99155.47;;;9.61;100.00
75996;BME280;64681;49.738;9.004;2023-11-19T03:28:02;99165.69;;;9.71;100.00
75996;BME280;64681;49.738;9.004;2023-11-19T03:30:28;99158.50;;;9.72;100.00
75996;BME280;64681;49.738;9.004;2023-11-19T03:32:55;99158.78;;;9.58;100.00
75996;BME280;64681;49.738;9.004;2023-11-19T03:35:21;99152.47;;;9.62;100.00
75996;BME280;64681;49.738;9.004;2023-11-19T03:37:46;99151.66;;;9.62;100.00
75996;BME280;64681;49.738;9.004;2023-11-19T03:40:12;99160.19;;;9.76;100.00
75996;BME280;64681;49.738;9.004;2023-11-19T03:42:38;99171.72;;;9.68;100.00
75996;BME280;64681;49.738;9.004;2023-11-19T03:45:06;99167.09;;;9.90;100.00
75996;BME280;64681;49.738;9.004;2023-11-19T03:47:34;99158.19;;;9.86;100.00
75996;BME280;64681;49.738;9.004;2023-11-19T03:50:00;99156.00;;;9.54;100.00
75996;BME280;64681;49.738;9.004;2023-11-19T03:52:26;99137.94;;;9.72;100.00
75996;BME280;64681;49.738;9.004;2023-11-19T03:54:55;99139.97;;;9.88;100.00
75996;BME280;64681;49.738;9.004;2023-11-19T03:57:21;99135.19;;;9.81;100.00
75996;BME280;64681;49.738;9.004;2023-11-19T03:59:47;99130.06;;;9.76;100.00
75996;BME280;64681;49.738;9.004;2023-11-19T04:02:13;99131.47;;;9.61;100.00
75996;BME280;64681;49.738;9.004;2023-11-19T04:04:38;99126.75;;;9.79;100.00
75996;BME280;64681;49.738;9.004;2023-11-19T04:07:05;99124.72;;;9.76;100.00
75996;BME280;64681;49.738;9.004;2023-11-19T04:09:31;99124.19;;;9.82;100.00
75996;BME280;64681;49.738;9.004;2023-11-19T04:11:59;99129.31;;;10.00;100.00
75996;BME280;64681;49.738;9.004;2023-11-19T04:14:26;99119.84;;;9.78;100.00
75996;BME280;64681;49.738;9.004;2023-11-19T04:16:52;99134.31;;;9.89;100.00
75996;BME280;64681;49.738;9.004;2023-11-19T04:19:18;99126.69;;;10.12;100.00
75996;BME280;64681;49.738;9.004;2023-11-19T04:21:45;99137.59;;;10.07;100.00
75996;BME280;64681;49.738;9.004;2023-11-19T04:24:12;99130.25;;;10.17;100.00
75996;BME280;64681;49.738;9.004;2023-11-19T04:26:44;99133.59;;;10.26;100.00
75996;BME280;64681;49.738;9.004;2023-11-19T04:29:15;99130.16;;;10.25;100.00
75996;BME280;64681;49.738;9.004;2023-11-19T04:31:45;99119.44;;;10.13;100.00
75996;BME280;64681;49.738;9.004;2023-11-19T04:34:11;99117.69;;;10.17;100.00
75996;BME280;64681;49.738;9.004;2023-11-19T04:36:37;99116.78;;;10.13;100.00
75996;BME280;64681;49.738;9.004;2023-11-19T04:39:04;99110.38;;;10.26;100.00
75996;BME280;64681;49.738;9.004;2023-11-19T04:41:51;99116.16;;;10.41;100.00
75996;BME280;64681;49.738;9.004;2023-11-19T04:44:20;99116.91;;;10.17;100.00
75996;BME280;64681;49.738;9.004;2023-11-19T04:46:46;99121.88;;;10.06;100.00
75996;BME280;64681;49.738;9.004;2023-11-19T04:49:13;99117.81;;;10.21;100.00
75996;BME280;64681;49.738;9.004;2023-11-19T04:51:43;99119.34;;;10.09;100.00
75996;BME280;64681;49.738;9.004;2023-11-19T04:54:10;99122.16;;;10.25;100.00
75996;BME280;64681;49.738;9.004;2023-11-19T04:56:36;99112.47;;;10.33;100.00
75996;BME280;64681;49.738;9.004;2023-11-19T04:59:06;99107.47;;;10.32;100.00
75996;BME280;64681;49.738;9.004;2023-11-19T05:01:32;99112.91;;;10.23;100.00
75996;BME280;64681;49.738;9.004;2023-11-19T05:03:58;99127.50;;;10.38;100.00
75996;BME280;64681;49.738;9.004;2023-11-19T05:06:31;99120.69;;;10.28;100.00
75996;BME280;64681;49.738;9.004;2023-11-19T05:08:59;99116.03;;;10.50;100.00
75996;BME280;64681;49.738;9.004;2023-11-19T05:11:35;99125.34;;;10.19;100.00
75996;BME280;64681;49.738;9.004;2023-11-19T05:14:03;99111.00;;;10.36;100.00
75996;BME280;64681;49.738;9.004;2023-11-19T05:16:31;99103.13;;;10.27;100.00
75996;BME280;64681;49.738;9.004;2023-11-19T05:18:57;99127.91;;;10.27;100.00
75996;BME280;64681;49.738;9.004;2023-11-19T05:21:22;99120.06;;;10.43;100.00
75996;BME280;64681;49.738;9.004;2023-11-19T05:23:49;99115.28;;;10.49;100.00
75996;BME280;64681;49.738;9.004;2023-11-19T05:26:22;99122.72;;;10.56;100.00
75996;BME280;64681;49.738;9.004;2023-11-19T05:28:49;99117.47;;;10.59;100.00
75996;BME280;64681;49.738;9.004;2023-11-19T05:31:16;99115.91;;;10.58;100.00
75996;BME280;64681;49.738;9.004;2023-11-19T05:33:42;99116.72;;;10.59;100.00
75996;BME280;64681;49.738;9.004;2023-11-19T05:36:08;99102.47;;;10.67;100.00
75996;BME280;64681;49.738;9.004;2023-11-19T05:38:36;99114.56;;;10.77;100.00
75996;BME280;64681;49.738;9.004;2023-11-19T05:41:02;99102.44;;;10.80;100.00
75996;BME280;64681;49.738;9.004;2023-11-19T05:43:28;99105.78;;;10.76;100.00
75996;BME280;64681;49.738;9.004;2023-11-19T05:45:54;99099.06;;;10.95;100.00
75996;BME280;64681;49.738;9.004;2023-11-19T05:48:19;99104.53;;;10.86;100.00
75996;BME280;64681;49.738;9.004;2023-11-19T05:50:45;99096.09;;;10.84;100.00
75996;BME280;64681;49.738;9.004;2023-11-19T05:53:11;99087.63;;;10.82;100.00
75996;BME280;64681;49.738;9.004;2023-11-19T05:55:39;99072.25;;;10.91;100.00
75996;BME280;64681;49.738;9.004;2023-11-19T05:58:26;99079.59;;;10.82;100.00
75996;BME280;64681;49.738;9.004;2023-11-19T06:00:57;99071.69;;;10.86;100.00
75996;BME280;64681;49.738;9.004;2023-11-19T06:03:25;99074.91;;;10.91;100.00
75996;BME280;64681;49.738;9.004;2023-11-19T06:05:52;99081.84;;;10.80;100.00
75996;BME280;64681;49.738;9.004;2023-11-19T06:08:17;99077.47;;;10.88;100.00
75996;BME280;64681;49.738;9.004;2023-11-19T06:10:45;99083.22;;;11.02;100.00
75996;BME280;64681;49.738;9.004;2023-11-19T06:13:16;99085.22;;;11.05;100.00
75996;BME280;64681;49.738;9.004;2023-11-19T06:15:43;99088.66;;;11.06;100.00
75996;BME280;64681;49.738;9.004;2023-11-19T06:18:08;99083.78;;;11.08;100.00
75996;BME280;64681;49.738;9.004;2023-11-19T06:20:35;99081.97;;;11.12;100.00
75996;BME280;64681;49.738;9.004;2023-11-19T06:23:01;99083.06;;;11.11;100.00
75996;BME280;64681;49.738;9.004;2023-11-19T06:25:26;99091.44;;;11.09;100.00
75996;BME280;64681;49.738;9.004;2023-11-19T06:27:53;99092.44;;;11.17;100.00
75996;BME280;64681;49.738;9.004;2023-11-19T06:30:19;99093.88;;;11.15;100.00
75996;BME280;64681;49.738;9.004;2023-11-19T06:32:46;99088.91;;;11.01;100.00
75996;BME280;64681;49.738;9.004;2023-11-19T06:35:12;99087.84;;;11.18;100.00
75996;BME280;64681;49.738;9.004;2023-11-19T06:37:40;99098.97;;;11.20;100.00
75996;BME280;64681;49.738;9.004;2023-11-19T06:40:07;99084.88;;;11.35;100.00
75996;BME280;64681;49.738;9.004;2023-11-19T06:42:35;99088.47;;;11.27;100.00
75996;BME280;64681;49.738;9.004;2023-11-19T06:45:01;99093.88;;;11.15;100.00
75996;BME280;64681;49.738;9.004;2023-11-19T06:47:27;99093.44;;;11.13;100.00
75996;BME280;64681;49.738;9.004;2023-11-19T06:49:54;99101.50;;;11.29;100.00
75996;BME280;64681;49.738;9.004;2023-11-19T06:52:19;99114.09;;;11.28;100.00
75996;BME280;64681;49.738;9.004;2023-11-19T06:54:45;99110.06;;;11.34;100.00
75996;BME280;64681;49.738;9.004;2023-11-19T06:57:11;99111.97;;;11.34;100.00
75996;BME280;64681;49.738;9.004;2023-11-19T07:02:41;99115.16;;;11.39;100.00
75996;BME280;64681;49.738;9.004;2023-11-19T07:05:07;99135.81;;;11.27;100.00
75996;BME280;64681;49.738;9.004;2023-11-19T07:07:33;99128.69;;;11.31;100.00
75996;BME280;64681;49.738;9.004;2023-11-19T07:09:59;99132.31;;;11.38;100.00
75996;BME280;64681;49.738;9.004;2023-11-19T07:12:24;99131.25;;;11.27;100.00
75996;BME280;64681;49.738;9.004;2023-11-19T07:14:52;99136.50;;;11.23;100.00
75996;BME280;64681;49.738;9.004;2023-11-19T07:17:18;99146.22;;;11.44;100.00
75996;BME280;64681;49.738;9.004;2023-11-19T07:19:46;99154.00;;;11.49;100.00
75996;BME280;64681;49.738;9.004;2023-11-19T07:22:11;99150.84;;;11.60;100.00
75996;BME280;64681;49.738;9.004;2023-11-19T07:24:39;99151.91;;;11.71;100.00
75996;BME280;64681;49.738;9.004;2023-11-19T07:27:05;99154.22;;;11.72;100.00
75996;BME280;64681;49.738;9.004;2023-11-19T07:29:32;99163.03;;;11.73;100.00
75996;BME280;64681;49.738;9.004;2023-11-19T07:31:57;99158.28;;;11.82;100.00
75996;BME280;64681;49.738;9.004;2023-11-19T07:34:24;99163.75;;;11.86;100.00
75996;BME280;64681;49.738;9.004;2023-11-19T07:36:50;99163.25;;;11.96;100.00
75996;BME280;64681;49.738;9.004;2023-11-19T07:39:15;99153.38;;;11.84;100.00
75996;BME280;64681;49.738;9.004;2023-11-19T07:41:41;99164.06;;;11.68;100.00
75996;BME280;64681;49.738;9.004;2023-11-19T07:44:06;99152.84;;;11.79;100.00
75996;BME280;64681;49.738;9.004;2023-11-19T07:46:32;99159.94;;;11.71;100.00
75996;BME280;64681;49.738;9.004;2023-11-19T07:48:58;99150.69;;;11.68;100.00
75996;BME280;64681;49.738;9.004;2023-11-19T07:51:23;99155.09;;;11.77;100.00
75996;BME280;64681;49.738;9.004;2023-11-19T07:53:49;99143.44;;;11.69;100.00
75996;BME280;64681;49.738;9.004;2023-11-19T07:56:15;99155.06;;;11.61;100.00
75996;BME280;64681;49.738;9.004;2023-11-19T07:58:40;99155.63;;;11.54;100.00
75996;BME280;64681;49.738;9.004;2023-11-19T08:01:07;99168.06;;;11.75;100.00
75996;BME280;64681;49.738;9.004;2023-11-19T08:03:32;99158.56;;;11.77;100.00
75996;BME280;64681;49.738;9.004;2023-11-19T08:06:02;99167.06;;;11.67;100.00
75996;BME280;64681;49.738;9.004;2023-11-19T08:08:28;99173.03;;;11.76;100.00
75996;BME280;64681;49.738;9.004;2023-11-19T08:10:58;99169.84;;;11.70;100.00
75996;BME280;64681;49.738;9.004;2023-11-19T08:13:24;99179.88;;;11.74;100.00
75996;BME280;64681;49.738;9.004;2023-11-19T08:15:50;99180.88;;;11.69;100.00
75996;BME280;64681;49.738;9.004;2023-11-19T08:18:16;99181.38;;;11.59;100.00
75996;BME280;64681;49.738;9.004;2023-11-19T08:20:43;99180.50;;;11.54;100.00
75996;BME280;64681;49.738;9.004;2023-11-19T08:23:10;99181.94;;;11.80;100.00
75996;BME280;64681;49.738;9.004;2023-11-19T08:25:36;99191.09;;;11.79;100.00
75996;BME280;64681;49.738;9.004;2023-11-19T08:28:02;99180.28;;;12.04;100.00
75996;BME280;64681;49.738;9.004;2023-11-19T08:30:29;99191.78;;;12.05;100.00
75996;BME280;64681;49.738;9.004;2023-11-19T08:32:55;99182.97;;;11.76;100.00
75996;BME280;64681;49.738;9.004;2023-11-19T08:35:21;99176.97;;;11.95;100.00
75996;BME280;64681;49.738;9.004;2023-11-19T08:37:47;99174.91;;;12.04;100.00
75996;BME280;64681;49.738;9.004;2023-11-19T08:40:12;99174.13;;;11.87;100.00
75996;BME280;64681;49.738;9.004;2023-11-19T08:42:40;99174.97;;;11.76;100.00
75996;BME280;64681;49.738;9.004;2023-11-19T08:45:07;99169.66;;;11.63;100.00
75996;BME280;64681;49.738;9.004;2023-11-19T08:47:36;99189.56;;;11.66;100.00
75996;BME280;64681;49.738;9.004;2023-11-19T08:50:01;99198.13;;;11.71;100.00
75996;BME280;64681;49.738;9.004;2023-11-19T08:52:29;99189.88;;;11.77;100.00
75996;BME280;64681;49.738;9.004;2023-11-19T08:54:55;99198.97;;;12.16;100.00
75996;BME280;64681;49.738;9.004;2023-11-19T08:57:21;99194.81;;;12.19;100.00
75996;BME280;64681;49.738;9.004;2023-11-19T08:59:46;99194.28;;;12.61;98.24
75996;BME280;64681;49.738;9.004;2023-11-19T09:02:12;99206.91;;;12.61;95.93
75996;BME280;64681;49.738;9.004;2023-11-19T09:04:37;99197.47;;;12.83;96.42
75996;BME280;64681;49.738;9.004;2023-11-19T09:07:03;99197.63;;;12.90;96.48
75996;BME280;64681;49.738;9.004;2023-11-19T09:09:29;99193.41;;;12.73;96.12
75996;BME280;64681;49.738;9.004;2023-11-19T09:11:55;99187.59;;;12.87;96.19
75996;BME280;64681;49.738;9.004;2023-11-19T09:14:21;99204.06;;;13.05;94.28
75996;BME280;64681;49.738;9.004;2023-11-19T09:16:51;99212.84;;;13.22;94.97
75996;BME280;64681;49.738;9.004;2023-11-19T09:19:17;99210.09;;;13.38;94.27
75996;BME280;64681;49.738;9.004;2023-11-19T09:21:43;99212.16;;;13.25;92.33
75996;BME280;64681;49.738;9.004;2023-11-19T09:24:09;99205.56;;;13.22;93.75
75996;BME280;64681;49.738;9.004;2023-11-19T09:26:34;99199.56;;;13.09;92.67
75996;BME280;64681;49.738;9.004;2023-11-19T09:29:01;99214.69;;;13.37;93.31
75996;BME280;64681;49.738;9.004;2023-11-19T09:31:27;99193.47;;;13.48;92.91
75996;BME280;64681;49.738;9.004;2023-11-19T09:33:53;99206.25;;;13.55;91.28
75996;BME280;64681;49.738;9.004;2023-11-19T09:36:18;99203.75;;;14.05;90.09
75996;BME280;64681;49.738;9.004;2023-11-19T09:38:44;99201.84;;;14.29;87.25
75996;BME280;64681;49.738;9.004;2023-11-19T09:41:11;99202.50;;;14.22;86.83
75996;BME280;64681;49.738;9.004;2023-11-19T09:43:42;99200.56;;;14.22;84.58
75996;BME280;64681;49.738;9.004;2023-11-19T09:46:13;99194.41;;;13.99;85.13
75996;BME280;64681;49.738;9.004;2023-11-19T09:48:39;99196.13;;;13.87;85.74
75996;BME280;64681;49.738;9.004;2023-11-19T09:51:09;99194.06;;;14.00;84.37
75996;BME280;64681;49.738;9.004;2023-11-19T09:53:35;99206.81;;;13.44;87.74
75996;BME280;64681;49.738;9.004;2023-11-19T09:56:02;99196.78;;;13.41;86.98
75996;BME280;64681;49.738;9.004;2023-11-19T09:58:32;99192.72;;;13.48;86.93
75996;BME280;64681;49.738;9.004;2023-11-19T10:00:58;99196.63;;;13.73;85.40
75996;BME280;64681;49.738;9.004;2023-11-19T10:03:26;99190.97;;;13.98;86.41
75996;BME280;64681;49.738;9.004;2023-11-19T10:05:54;99189.28;;;13.90;85.84
75996;BME280;64681;49.738;9.004;2023-11-19T10:08:20;99192.56;;;14.03;83.96
75996;BME280;64681;49.738;9.004;2023-11-19T10:10:47;99189.31;;;13.70;84.52
75996;BME280;64681;49.738;9.004;2023-11-19T10:13:12;99194.25;;;14.11;83.59
75996;BME280;64681;49.738;9.004;2023-11-19T10:15:40;99201.50;;;13.87;86.34
75996;BME280;64681;49.738;9.004;2023-11-19T10:18:06;99185.56;;;13.55;87.99
75996;BME280;64681;49.738;9.004;2023-11-19T10:20:40;99186.69;;;13.35;89.39
75996;BME280;64681;49.738;9.004;2023-11-19T10:23:06;99187.28;;;13.28;90.77
75996;BME280;64681;49.738;9.004;2023-11-19T10:25:33;99204.44;;;13.23;93.45
75996;BME280;64681;49.738;9.004;2023-11-19T10:28:00;99198.75;;;13.25;92.78
75996;BME280;64681;49.738;9.004;2023-11-19T10:30:27;99209.41;;;13.21;92.82
75996;BME280;64681;49.738;9.004;2023-11-19T10:35:34;99205.44;;;12.79;94.66
75996;BME280;64681;49.738;9.004;2023-11-19T10:38:22;99212.41;;;12.84;94.07
75996;BME280;64681;49.738;9.004;2023-11-19T10:40:50;99209.41;;;12.70;94.98
75996;BME280;64681;49.738;9.004;2023-11-19T10:43:17;99216.63;;;12.85;95.75
75996;BME280;64681;49.738;9.004;2023-11-19T10:45:43;99207.66;;;12.61;94.85
75996;BME280;64681;49.738;9.004;2023-11-19T10:48:09;99217.81;;;12.52;95.01
75996;BME280;64681;49.738;9.004;2023-11-19T10:50:40;99223.75;;;12.61;95.82
75996;BME280;64681;49.738;9.004;2023-11-19T10:53:07;99211.06;;;12.58;96.47
75996;BME280;64681;49.738;9.004;2023-11-19T10:55:37;99205.88;;;12.65;95.53
75996;BME280;64681;49.738;9.004;2023-11-19T10:58:07;99200.75;;;12.76;94.69
75996;BME280;64681;49.738;9.004;2023-11-19T11:00:42;99195.34;;;12.92;93.42
75996;BME280;64681;49.738;9.004;2023-11-19T11:03:24;99188.25;;;13.00;93.34
75996;BME280;64681;49.738;9.004;2023-11-19T11:05:51;99187.81;;;13.73;91.07
75996;BME280;64681;49.738;9.004;2023-11-19T11:08:19;99185.91;;;14.16;88.42
75996;BME280;64681;49.738;9.004;2023-11-19T11:10:46;99195.25;;;14.49;87.64
75996;BME280;64681;49.738;9.004;2023-11-19T11:13:14;99181.75;;;14.69;86.97
75996;BME280;64681;49.738;9.004;2023-11-19T11:15:40;99183.56;;;14.88;85.60
75996;BME280;64681;49.738;9.004;2023-11-19T11:18:09;99181.59;;;14.35;86.21
75996;BME280;64681;49.738;9.004;2023-11-19T11:20:35;99163.09;;;14.30;85.70
75996;BME280;64681;49.738;9.004;2023-11-19T11:28:48;99167.00;;;14.59;84.24
75996;BME280;64681;49.738;9.004;2023-11-19T11:39:24;99165.88;;;14.37;83.66
75996;BME280;64681;49.738;9.004;2023-11-19T11:50:18;99152.53;;;13.51;85.48
75996;BME280;64681;49.738;9.004;2023-11-19T11:55:35;99159.56;;;13.79;84.42
75996;BME280;64681;49.738;9.004;2023-11-19T11:58:07;99156.66;;;14.11;83.46
75996;BME280;64681;49.738;9.004;2023-11-19T12:00:38;99149.84;;;14.17;84.00
75996;BME280;64681;49.738;9.004;2023-11-19T12:03:06;99158.03;;;14.75;83.09
75996;BME280;64681;49.738;9.004;2023-11-19T12:05:33;99150.34;;;15.03;80.30
75996;BME280;64681;49.738;9.004;2023-11-19T12:08:04;99157.91;;;15.25;80.56
75996;BME280;64681;49.738;9.004;2023-11-19T12:10:36;99152.88;;;15.19;79.63
75996;BME280;64681;49.738;9.004;2023-11-19T12:13:06;99151.19;;;15.08;79.99
75996;BME280;64681;49.738;9.004;2023-11-19T12:18:23;99152.03;;;15.15;76.90
75996;BME280;64681;49.738;9.004;2023-11-19T12:20:50;99147.41;;;15.12;77.63
75996;BME280;64681;49.738;9.004;2023-11-19T12:23:15;99139.41;;;15.19;77.91
75996;BME280;64681;49.738;9.004;2023-11-19T12:25:41;99138.81;;;15.03;77.06
75996;BME280;64681;49.738;9.004;2023-11-19T12:28:12;99147.56;;;14.96;76.16
75996;BME280;64681;49.738;9.004;2023-11-19T12:30:38;99147.94;;;14.68;77.13
75996;BME280;64681;49.738;9.004;2023-11-19T12:33:08;99153.81;;;14.50;76.87
75996;BME280;64681;49.738;9.004;2023-11-19T12:35:42;99141.78;;;14.40;77.85
75996;BME280;64681;49.738;9.004;2023-11-19T12:38:41;99130.47;;;14.28;78.23
75996;BME280;64681;49.738;9.004;2023-11-19T12:43:29;99127.88;;;14.12;79.00
75996;BME280;64681;49.738;9.004;2023-11-19T12:45:55;99147.06;;;14.10;79.67
75996;BME280;64681;49.738;9.004;2023-11-19T12:48:21;99139.13;;;13.94;79.80
75996;BME280;64681;49.738;9.004;2023-11-19T12:50:57;99144.22;;;13.80;79.90
75996;BME280;64681;49.738;9.004;2023-11-19T12:53:25;99139.94;;;13.98;79.80
75996;BME280;64681;49.738;9.004;2023-11-19T12:55:51;99135.47;;;13.59;79.89
75996;BME280;64681;49.738;9.004;2023-11-19T12:58:36;99122.81;;;13.83;79.95
75996;BME280;64681;49.738;9.004;2023-11-19T13:01:05;99132.66;;;13.99;80.28
75996;BME280;64681;49.738;9.004;2023-11-19T13:03:38;99125.34;;;13.96;79.81
75996;BME280;64681;49.738;9.004;2023-11-19T13:06:05;99126.66;;;13.82;79.21
75996;BME280;64681;49.738;9.004;2023-11-19T13:08:51;99114.31;;;13.58;78.86
75996;BME280;64681;49.738;9.004;2023-11-19T13:11:34;99125.19;;;13.65;80.82
75996;BME280;64681;49.738;9.004;2023-11-19T13:14:04;99119.19;;;14.18;78.36
75996;BME280;64681;49.738;9.004;2023-11-19T13:16:31;99121.28;;;14.29;77.27
75996;BME280;64681;49.738;9.004;2023-11-19T13:18:57;99109.56;;;14.17;77.27
75996;BME280;64681;49.738;9.004;2023-11-19T13:21:24;99114.34;;;14.04;76.70
75996;BME280;64681;49.738;9.004;2023-11-19T13:23:50;99116.25;;;13.81;78.22
75996;BME280;64681;49.738;9.004;2023-11-19T13:26:15;99103.81;;;13.92;78.48
75996;BME280;64681;49.738;9.004;2023-11-19T13:28:41;99108.50;;;13.75;78.00
75996;BME280;64681;49.738;9.004;2023-11-19T13:31:07;99101.59;;;13.74;77.12
75996;BME280;64681;49.738;9.004;2023-11-19T13:33:33;99113.69;;;13.65;77.86
75996;BME280;64681;49.738;9.004;2023-11-19T13:35:59;99100.78;;;13.51;74.17